Tiempo atmosférico en la estación meteorológica de Carrión De Los Condes, Palencia (830 m.)



Fecha
DESCASC
Temp. máxima en grados centígrados (hora)
DESCASC
Temp. mínima en grados centígrados (hora)
DESCASC
Temp. media en grados centígrados
DESCASC
Racha de viento máxima en m/sg (hora)
DESCASC
Velocidad máxima media en intervalos de 10 minutos(hora)
DESCASC
Precipitaciones diarias en mm
DESCASC
Precipitaciones de 00:00 a 06:00 en mm
DESCASC
Precipitaciones de 06:00 a 12:00 en mm
DESCASC
Precipitaciones de 12:00 a 18:00 en mm
DESCASC
Precipitaciones de 18:00 a 24:00 en mm
DESCASC
22-08-2019 29.2 (16:40) 10.9 (08:10) 20.1 9.17 (01:10) 3.89 (00:40) 0 0 0 0 0
21-08-2019 28.5 (17:10) 11.5 (07:40) 20 10 (20:40) 4.72 (20:40) 0 0 0 0 0
20-08-2019 21.8 (16:00) 12.2 (07:40) 17 12.5 (18:30) 5.28 (11:30) 0 0 0 0 0
19-08-2019 20.7 (15:40) 12.4 (03:30) 16.6 13.06 (22:30) 5.28 (21:40) 0 0 0 0 0
18-08-2019 28.7 (15:40) 10.7 (00:00) 19.7 10.28 (17:20) 4.72 (17:20) 0 0 0 0 0
17-08-2019 32.1 (17:00) 9.4 (00:00) 20.7 7.5 (15:10) 3.33 (15:10) 0 0 0 0 0
16-08-2019 31.7 (16:50) 12.5 (00:00) 22.1 7.78 (15:50) 3.61 (00:20) 0 0 0 0 0
15-08-2019 29.6 (17:30) 11.9 (00:00) 20.8 9.72 (20:50) 4.17 (21:20) 0 0 0 0 0
14-08-2019 29.9 (18:10) 8.4 (00:00) 19.1 6.67 (12:30) 2.78 (00:20) 0 0 0 0 0
13-08-2019 24.8 (18:30) 8.4 (00:00) 16.6 8.61 (01:50) 3.89 (01:50) 0 0 0 0 0
12-08-2019 22.1 (17:40) 6.2 (00:00) 14.2 10.83 (21:00) 4.72 (21:40) 0 0 0 0 0
11-08-2019 23.7 (16:50) 11.8 (00:00) 17.8 9.72 (20:20) 4.44 (21:10) 2.6 2.4 0.2 0 0
10-08-2019 26.5 (17:30) 13.2 (00:00) 19.8 10.83 (22:30) 4.17 (23:00) 0 0 0 0 0
09-08-2019 26.5 (17:00) 15.7 (00:00) 21.1 14.44 (15:00) 5.83 (14:30) 0 0 0 0 0
08-08-2019 29.2 (17:20) 16.2 (00:00) 22.7 10.28 (18:30) 4.17 (10:00) 0.2 0 0.2 0 0
07-08-2019 26.2 (15:20) 16 (00:00) 21.1 11.67 (16:50) 5 (15:40) 0.8 0.2 0 0 0.6
06-08-2019 29.3 (17:10) 12.1 (00:00) 20.7 7.5 (21:50) 3.33 (21:40) 3 0 0 0 3
05-08-2019 31.7 (17:20) 12.4 (00:00) 22.1 8.33 (23:20) 3.89 (23:00) 0 0 0 0 0
04-08-2019 31.9 (16:10) 12.5 (00:00) 22.2 8.89 (22:00) 3.89 (22:10) 0 0 0 0 0
03-08-2019 33.2 (16:00) 14.3 (00:00) 23.8 9.17 (22:00) 4.17 (23:10) 0 0 0 0 0
02-08-2019 31.1 (16:40) 11.4 (00:00) 21.3 8.61 (21:10) 3.89 (21:10) 0 0 0 0 0
01-08-2019 29.1 (16:20) 13.3 (00:00) 21.2 10 (19:30) 3.89 (19:30) 0 0 0 0 0
31-07-2019 26.5 (17:20) 9.6 (00:00) 18.1 9.44 (09:50) 4.17 (20:20) 0 0 0 0 0
30-07-2019 24 (17:00) 10.2 (00:00) 17.1 11.67 (19:40) 4.72 (19:40) 0 0 0 0 0
29-07-2019 26.5 (16:40) 8.1 (00:00) 17.3 11.11 (14:10) 4.44 (13:30) 0 0 0 0 0
28-07-2019 25.1 (18:00) 6.9 (00:00) 16 6.11 (16:20) 2.5 (14:30) 0 0 0 0 0
27-07-2019 20.3 (16:20) 12.4 (00:00) 16.3 10.28 (18:00) 4.44 (17:00) 5.8 0 1.8 4 0
26-07-2019 -- (--) -- (--) -- -- (--) -- (--) -- -- 0.2 -- 0

Gráficas

Temp. máximas Temp. mínimas Temp. medias Precipitaciones Rachas de viento máximas Velocidades máximas media en intervalos de 10 minutos

Datos horarios

Fecha y hora oficial Temperatura (ºC) Velocidad del viento (km/h) Dirección del viento Racha (km/h) Dirección de racha Precipitación (mm) Presión (hPa) Tendencia (hPa) Humedad (%)
2019-08-24 23:00:00 17.4 2 Norte 4 Norte 0 923.9 0.5 61
2019-08-24 22:00:00 19.9 0 Calma 6 Noroeste 0 923.7 0 57
2019-08-24 21:00:00 23.4 0 Calma 4 Noroeste 0 923.4 -0.5 52
2019-08-24 20:00:00 26.6 0 Calma 14 Sudoeste 0 923.4 -0.9 33
2019-08-24 19:00:00 30.1 8 Sudoeste 18 Sudoeste 0 923.7 -0.9 24
2019-08-24 18:00:00 30.3 5 Sudoeste 23 Sur 0 923.9 -1.1 22
2019-08-24 17:00:00 31.9 5 Noroeste 23 Sudoeste 0 924.3 -1.2 21
2019-08-24 16:00:00 32.3 7 Sudoeste 24 Sudoeste 0 924.6 -1.3 17
2019-08-24 15:00:00 31.9 4 Este 12 Sudoeste 0 925 -1.3 16
2019-08-24 14:00:00 30.9 3 Sudoeste 13 Sur 0 925.5 -0.7 20
2019-08-24 13:00:00 29.4 5 Sur 12 Sudoeste 0 925.9 -0.3 25
2019-08-24 12:00:00 27.5 4 Sudeste 22 Este 0 926.3 0.3 26
2019-08-24 11:00:00 25.2 8 Este 20 Nordeste 0 926.2 0.3 30
2019-08-24 10:00:00 22.1 5 Nordeste 16 Nordeste 0 926.2 0.6 37
2019-08-24 09:00:00 16.8 6 Nordeste 13 Nordeste 0 926 0.6 48
2019-08-24 08:00:00 13.3 5 Nordeste 14 Nordeste 0 925.9 0.1 60
2019-08-24 07:00:00 13.7 3 Norte 18 Sudoeste 0 925.6 -0.2 62
2019-08-24 06:00:00 15.7 7 Nordeste 17 Nordeste 0 925.4 -0.3 46
2019-08-24 05:00:00 14.1 4 Nordeste 10 Nordeste 0 925.8 0 59
2019-08-24 04:00:00 16.4 2 Norte 18 Nordeste 0 925.8 -0.1 47
2019-08-24 03:00:00 19.6 9 Nordeste 18 Norte 0 925.7 -0.1 35
2019-08-24 02:00:00 18.5 6 Norte 18 Nordeste 0 925.8 0.2 42
2019-08-24 01:00:00 19.3 7 Nordeste 17 Nordeste 0 925.9 0.9 40
2019-08-24 00:00:00 19.9 6 Norte 15 Nordeste 0 925.8 1.3 40
2019-08-23 23:00:00 20.3 6 Nordeste 26 Nordeste 0 925.6 1.1 34
2019-08-23 22:00:00 17.4 5 Norte 14 Norte 0 925 0.4 50
2019-08-23 21:00:00 21.5 0 Calma 3 Norte 0 924.5 -0.3 54
2019-08-23 20:00:00 25.2 2 Norte 6 Sudeste 0 924.5 -0.6 35
2019-08-23 19:00:00 29.8 2 Sur 15 Sudeste 0 924.6 -0.8 16
2019-08-23 18:00:00 31.8 5 Sudeste 13 Sudeste 0 924.8 -1.2 11
2019-08-23 17:00:00 31.5 4 Este 20 Norte 0 925.1 -1.3 10
2019-08-23 16:00:00 30.9 3 Sudoeste 21 Sudoeste 0 925.4 -1.6 13
2019-08-23 15:00:00 30.6 6 Sur 15 Sudoeste 0 926 -1.3 20
2019-08-23 14:00:00 28.3 4 Oeste 13 Sudeste 0 926.4 -1.1 21
2019-08-23 13:00:00 27.9 5 Sudeste 13 Nordeste 0 927 -0.5 21
2019-08-23 12:00:00 25.7 3 Este 9 Sudeste 0 927.3 -0.1 29
2019-08-23 11:00:00 23 2 Sur 14 Este 0 927.5 0.3 28
2019-08-23 10:00:00 18.6 3 Sur 7 Sudeste 0 927.5 0.5 43
2019-08-23 09:00:00 10.9 0 Calma 3 Noroeste 0 927.4 0.5 75
2019-08-23 08:00:00 8.5 0 Calma 3 Noroeste 0 927.2 0.3 82
2019-08-23 07:00:00 9.4 0 Calma 8 Norte 0 927 -0.1 74
2019-08-23 06:00:00 11.6 4 Norte 12 Nordeste 0 926.9 -0.4 62
2019-08-23 05:00:00 10.3 5 Norte 12 Norte 0 926.9 -0.6 76
2019-08-23 04:00:00 10.7 2 Norte 7 Nordeste 0 927.1 -0.4 74
2019-08-23 03:00:00 12.8 4 Norte 14 Norte 0 927.3 -0.2 67
2019-08-23 02:00:00 15.1 5 Nordeste 20 Norte 0 927.5 -0.2 58
2019-08-23 01:00:00 15.3 6 Nordeste 19 Este 0 927.5 0.1 55
2019-08-23 00:00:00 16.4 9 Nordeste 16 Norte 0 927.5 0.3 41
2019-08-22 23:00:00 17.8 6 Nordeste 14 Nordeste 0 927.7 1.1 33
2019-08-22 22:00:00 18.8 5 Nordeste 12 Nordeste 0 927.4 0.8 31
2019-08-22 21:00:00 23.3 5 Nordeste 18 Nordeste 0 927.2 0.5 21
2019-08-22 20:00:00 26.3 7 Nordeste 23 Nordeste 0 926.6 -0.5 14
2019-08-22 19:00:00 28.1 10 Nordeste 24 Norte 0 926.6 -1 15
2019-08-22 18:00:00 28.2 12 Nordeste 24 Norte 0 926.7 -1.5 14
2019-08-22 17:00:00 28.3 13 Nordeste 26 Norte 0 927.1 -1.5 12
2019-08-22 16:00:00 28.3 8 Este 27 Sudeste 0 927.6 -1.5 11
2019-08-22 15:00:00 27 9 Nordeste 22 Nordeste 0 928.2 -1.3 13
2019-08-22 14:00:00 26.3 7 Nordeste 27 Sudeste 0 928.6 -1.1 18
2019-08-22 13:00:00 24.4 9 Nordeste 31 Sudeste 0 929.1 -0.7 20
2019-08-22 12:00:00 22.5 11 Este 32 Nordeste 0 929.5 -0.1 26
2019-08-22 11:00:00 19.9 10 Nordeste 30 Nordeste 0 929.7 0.5 36
2019-08-22 10:00:00 17.5 9 Nordeste 21 Norte 0 929.8 1 47
2019-08-22 09:00:00 13.5 6 Nordeste 14 Norte 0 929.6 1.1 63
2019-08-22 08:00:00 11.2 4 Noroeste 15 Nordeste 0 929.2 0.5 71
2019-08-22 07:00:00 11.8 6 Nordeste 27 Nordeste 0 928.8 -0.1 69
2019-08-22 06:00:00 12.7 14 Nordeste 28 Nordeste 0 928.5 -0.4 66
2019-08-22 05:00:00 12.9 11 Nordeste 24 Nordeste 0 928.7 -0.6 72
2019-08-22 04:00:00 13 11 Nordeste 23 Nordeste 0 928.9 -0.3 81
2019-08-22 03:00:00 13.4 8 Nordeste 19 Nordeste 0 928.9 0 82
2019-08-22 02:00:00 14.4 6 Este 33 Nordeste 0 929.3 0.8 78
2019-08-22 01:00:00 15.5 12 Nordeste 32 Nordeste 0 929.2 1.3 74
2019-08-22 00:00:00 16.2 10 Nordeste 35 Nordeste 0 928.9 2.1 70
2019-08-21 23:00:00 17.3 14 Nordeste 34 Nordeste 0 928.5 2.6 66
2019-08-21 22:00:00 19 15 Nordeste 36 Nordeste 0 927.9 2.4 61
2019-08-21 21:00:00 22.3 15 Nordeste 36 Nordeste 0 926.8 1.4 49
2019-08-21 20:00:00 25.6 13 Nordeste 29 Nordeste 0 925.9 0.1 34
2019-08-21 19:00:00 28 5 Sudeste 18 Norte 0 925.5 -0.6 27
2019-08-21 18:00:00 27.7 3 Norte 14 Nordeste 0 925.4 -1.2 30
2019-08-21 17:00:00 28.3 4 Este 18 Norte 0 925.8 -1.2 28
2019-08-21 16:00:00 27.2 5 Este 20 Sudeste 0 926.1 -1.4 34
2019-08-21 15:00:00 26.3 5 Este 21 Norte 0 926.6 -1.1 38
2019-08-21 14:00:00 24.4 7 Este 19 Este 0 927 -0.9 43
2019-08-21 13:00:00 22 7 Nordeste 19 Este 0 927.5 -0.3 50
2019-08-21 12:00:00 20.3 7 Este 22 Este 0 927.7 -0.3 55
2019-08-21 11:00:00 18.1 10 Nordeste 26 Nordeste 0 927.9 0.3 61
2019-08-21 10:00:00 15.4 12 Nordeste 27 Nordeste 0 927.8 0.1 68
2019-08-21 09:00:00 13 8 Nordeste 21 Nordeste 0 928 0.2 80
2019-08-21 08:00:00 11.7 9 Nordeste 21 Nordeste 0 927.6 -0.6 83
2019-08-21 07:00:00 11.7 9 Nordeste 22 Nordeste 0 927.7 -0.7 83
2019-08-21 06:00:00 12.1 10 Norte 26 Nordeste 0 927.8 -0.9 81
2019-08-21 05:00:00 12.3 9 Nordeste 23 Nordeste 0 928.2 -0.8 80
2019-08-21 04:00:00 12.6 11 Nordeste 23 Nordeste 0 928.4 -0.4 78
2019-08-21 03:00:00 12.8 11 Nordeste 26 Nordeste 0 928.7 -0.4 77
2019-08-21 02:00:00 12.8 10 Nordeste 28 Nordeste 0 929 -0.1 77
2019-08-21 01:00:00 13 13 Nordeste 28 Este 0 928.8 0.2 77
2019-08-21 00:00:00 13.3 10 Nordeste 32 Nordeste 0 929.1 1 76
2019-08-20 23:00:00 14.1 11 Nordeste 31 Nordeste 0 929.1 1.1 72
2019-08-20 22:00:00 15.3 14 Nordeste 40 Norte 0 928.6 0.7 65
2019-08-20 21:00:00 17.1 15 Nordeste 40 Nordeste 0 928.1 0.3 57
2019-08-20 20:00:00 19 16 Nordeste 40 Nordeste 0 928 0 48
2019-08-20 19:00:00 20.7 16 Nordeste 45 Nordeste 0 927.9 -0.3 42
2019-08-20 18:00:00 21.1 15 Nordeste 41 Este 0 927.8 -0.9 40
2019-08-20 17:00:00 21.6 14 Nordeste 44 Este 0 928 -0.9 40
2019-08-20 16:00:00 21.6 13 Este 39 Este 0 928.2 -0.8 40
2019-08-20 15:00:00 20.8 17 Nordeste 40 Nordeste 0 928.7 -0.1 43
2019-08-20 14:00:00 19.6 15 Nordeste 44 Norte 0 928.9 0.4 50
2019-08-20 13:00:00 19.2 18 Nordeste 44 Nordeste 0 929 0.8 53
2019-08-20 12:00:00 17.1 18 Nordeste 44 Nordeste 0 928.8 1.1 60
2019-08-20 11:00:00 16.2 16 Nordeste 43 Nordeste 0 928.5 1.5 63
2019-08-20 10:00:00 15.7 17 Nordeste 36 Nordeste 0 928.2 1.9 62
2019-08-20 09:00:00 13.6 14 Nordeste 37 Nordeste 0 927.7 2.1 72
2019-08-20 08:00:00 12.2 14 Nordeste 36 Nordeste 0 927 1.2 80
2019-08-20 07:00:00 12.8 16 Nordeste 39 Nordeste 0 926.3 0.6 79
2019-08-20 06:00:00 12.6 16 Nordeste 35 Nordeste 0 925.6 -0.2 80
2019-08-20 05:00:00 12.8 12 Nordeste 35 Nordeste 0 925.8 -0.3 79
2019-08-20 04:00:00 13.5 15 Nordeste 35 Norte 0 925.7 -0.7 77
2019-08-20 03:00:00 13.9 13 Nordeste 33 Nordeste 0 925.8 -0.2 74
2019-08-20 02:00:00 14.1 15 Nordeste 44 Norte 0 926.1 0 74
2019-08-20 01:00:00 13.9 14 Nordeste 42 Nordeste 0 926.4 0.9 75
2019-08-20 00:00:00 13.8 15 Nordeste 38 Nordeste 0 926 0.9 74
2019-08-19 23:00:00 13.9 14 Nordeste 47 Nordeste 0 926.1 1.2 75
2019-08-19 22:00:00 14.7 18 Nordeste 41 Nordeste 0 925.5 1 70
2019-08-19 21:00:00 15.3 16 Nordeste 40 Nordeste 0 925.1 0.6 70
2019-08-19 20:00:00 16.6 11 Este 37 Nordeste 0 924.9 0.5 65
2019-08-19 19:00:00 17.8 13 Nordeste 35 Este 0 924.5 -0.3 59
2019-08-19 18:00:00 19 11 Nordeste 34 Nordeste 0 924.5 -0.5 54
2019-08-19 17:00:00 19.6 14 Nordeste 36 Este 0 924.4 -0.6 52
2019-08-19 16:00:00 19.5 15 Nordeste 36 Este 0 924.8 -0.2 54
2019-08-19 15:00:00 20.3 12 Nordeste 35 Nordeste 0 925 0.1 51
2019-08-19 14:00:00 19.5 13 Nordeste 37 Norte 0 925 0.2 54
2019-08-19 13:00:00 18.6 17 Nordeste 40 Nordeste 0 925 0.4 57
2019-08-19 12:00:00 17.8 15 Nordeste 39 Nordeste 0 924.9 0.2 60
2019-08-19 11:00:00 16.4 15 Nordeste 41 Nordeste 0 924.8 0.3 65
2019-08-19 10:00:00 15.1 15 Nordeste 35 Nordeste 0 924.6 0.3 71
2019-08-19 09:00:00 13.5 13 Nordeste 29 Nordeste 0 924.7 0.4 77
2019-08-19 08:00:00 12.9 10 Nordeste 28 Nordeste 0 924.5 0.4 80
2019-08-19 07:00:00 13 11 Nordeste 24 Nordeste 0 924.3 0.1 79
2019-08-19 06:00:00 13.1 12 Nordeste 26 Nordeste 0 924.3 -0.2 78
2019-08-19 05:00:00 12.9 6 Nordeste 19 Nordeste 0 924.1 -0.4 78
2019-08-19 04:00:00 12.4 6 Nordeste 17 Nordeste 0 924.2 -0.3 80
2019-08-19 03:00:00 12.6 6 Nordeste 25 Nordeste 0 924.5 0.1 79
2019-08-19 02:00:00 13 12 Nordeste 31 Nordeste 0 924.5 0.7 78
2019-08-19 01:00:00 13.4 12 Nordeste 26 Nordeste 0 924.5 1.6 79
2019-08-19 00:00:00 14 10 Nordeste 23 Nordeste 0 924.4 2.3 78
2019-08-18 23:00:00 14.9 10 Nordeste 32 Nordeste 0 923.8 2.4 76
2019-08-18 22:00:00 16.7 12 Nordeste 28 Nordeste 0 922.9 1.5 71
2019-08-18 21:00:00 19.2 12 Nordeste 26 Nordeste 0 922.1 1 62
2019-08-18 20:00:00 23.3 4 Noroeste 15 Norte 0 921.4 1.1 53
2019-08-18 19:00:00 23.7 5 Noroeste 31 Noroeste 0 921.4 0.8 50
2019-08-18 18:00:00 24 9 Noroeste 37 Norte 0 921.1 0.5 51
2019-08-18 17:00:00 27.6 7 Sudoeste 29 Sur 0 920.3 -0.8 35
2019-08-18 16:00:00 27.8 7 Sudoeste 30 Sudoeste 0 920.6 -1 34
2019-08-18 15:00:00 28.2 8 Sur 22 Sudoeste 0 920.6 -0.9 30
2019-08-18 14:00:00 26.3 8 Sudoeste 28 Sudoeste 0 921.1 -0.1 37
2019-08-18 13:00:00 24.2 7 Sudoeste 21 Sudoeste 0 921.6 0.8 47
2019-08-18 12:00:00 23.4 9 Sur 21 Sur 0 921.5 1 48
2019-08-18 11:00:00 21.7 8 Sudoeste 18 Sur 0 921.2 0.7 54
2019-08-18 10:00:00 19.5 8 Sur 16 Sudoeste 0 920.8 0.8 65
2019-08-18 09:00:00 15.2 0 Calma 7 Sudoeste 0 920.5 0.7 85
2019-08-18 08:00:00 11.1 0 Calma 4 Sudoeste 0 920.5 0.8 95
2019-08-18 07:00:00 10.9 0 Calma 4 Sudoeste 0 920 -0.1 94
2019-08-18 06:00:00 11.3 0 Calma 4 Noroeste 0 919.8 -0.6 91
2019-08-18 05:00:00 12.2 0 Calma 4 Sudoeste 0 919.7 -0.7 91
2019-08-18 04:00:00 12.6 0 Calma 5 Sudoeste 0 920.1 -0.1 83
2019-08-18 03:00:00 13.3 3 Sudoeste 4 Sudoeste 0 920.4 0.1 81
2019-08-18 02:00:00 14.5 0 Calma 4 Sur 0 920.4 -0.1 75
2019-08-18 01:00:00 15.5 0 Calma 4 Sudoeste 0 920.2 0.1 71
2019-08-18 00:00:00 17.4 0 Calma 5 Norte 0 920.3 0.5 62
2019-08-17 23:00:00 19.5 0 Calma 8 Sudoeste 0 920.5 0.7 50
2019-08-17 22:00:00 22 2 Sudoeste 9 Sudoeste 0 920.1 -0.3 43
2019-08-17 21:00:00 26.2 3 Sudoeste 19 Sudoeste 0 919.8 -0.9 29
2019-08-17 20:00:00 28.4 4 Sudoeste 24 Sur 0 919.8 -1.4 27
2019-08-17 19:00:00 30.8 9 Sudoeste 25 Sudoeste 0 920.4 -1.5 20
2019-08-17 18:00:00 31.6 7 Sudoeste 25 Sudoeste 0 920.7 -1.8 18
2019-08-17 17:00:00 31.7 6 Sudoeste 25 Sudoeste 0 921.2 -1.8 19
2019-08-17 16:00:00 31.4 5 Sudoeste 27 Sudoeste 0 921.9 -1.7 21
2019-08-17 15:00:00 30.2 8 Sudoeste 24 Sudoeste 0 922.5 -1.5 24
2019-08-17 14:00:00 29.4 6 Sudoeste 25 Sur 0 923 -1.4 26
2019-08-17 13:00:00 27.9 4 Sudoeste 21 Sudoeste 0 923.6 -0.8 28
2019-08-17 12:00:00 25.6 5 Sudoeste 13 Sudoeste 0 924 -0.3 37
2019-08-17 11:00:00 22.2 4 Sur 9 Sudeste 0 924.4 0.5 46
2019-08-17 10:00:00 18.9 3 Sur 8 Sudoeste 0 924.4 0.8 58
2019-08-17 09:00:00 13 0 Calma 3 Noroeste 0 924.3 0.8 86
2019-08-17 08:00:00 9.6 0 Calma 4 Noroeste 0 923.9 0.3 95
2019-08-17 07:00:00 9.9 0 Calma 4 Oeste 0 923.6 -0.4 93
2019-08-17 06:00:00 10.8 0 Calma 4 Norte 0 923.5 -0.5 86
2019-08-17 05:00:00 11.8 0 Calma 5 Norte 0 923.6 -0.7 85
2019-08-17 04:00:00 13.1 0 Calma 5 Norte 0 924 -0.3 82
2019-08-17 03:00:00 14.5 2 Noroeste 6 Norte 0 924 0 75
2019-08-17 02:00:00 16.8 0 Calma 9 Norte 0 924.3 0.9 65
2019-08-17 01:00:00 19.4 3 Oeste 21 Norte 0 924.3 1.4 58
2019-08-17 00:00:00 20.4 8 Nordeste 18 Norte 0 924 1.3 58
2019-08-16 23:00:00 19.7 8 Norte 23 Nordeste 0 923.4 0.9 49
2019-08-16 22:00:00 20.6 0 Calma 2 Norte 0 922.9 0.2 57
2019-08-16 21:00:00 23.7 0 Calma 5 Norte 0 922.7 -0.2 47
2019-08-16 20:00:00 27.3 0 Calma 12 Sudoeste 0 922.5 -0.8 27
2019-08-16 19:00:00 31 4 Sudoeste 19 Sudoeste 0 922.7 -0.9 21
2019-08-16 18:00:00 31.6 4 Oeste 25 Sur 0 922.9 -1.1 23
2019-08-16 17:00:00 31.3 6 Oeste 24 Sur 0 923.3 -1 22
2019-08-16 16:00:00 31.2 8 Sudoeste 28 Sudoeste 0 923.6 -1.3 23
2019-08-16 15:00:00 30.9 6 Oeste 21 Sudoeste 0 924 -1.4 26
2019-08-16 14:00:00 29.5 6 Sudoeste 18 Sur 0 924.3 -1.2 31
2019-08-16 13:00:00 28.4 3 Sudeste 12 Sudeste 0 924.9 -0.9 31
2019-08-16 12:00:00 26.4 2 Sur 10 Sudoeste 0 925.4 -0.6 37
2019-08-16 11:00:00 24.6 6 Sudeste 12 Sudeste 0 925.5 -0.5 38
2019-08-16 10:00:00 21.3 3 Nordeste 9 Nordeste 0 925.8 -0.1 45
2019-08-16 09:00:00 15.8 2 Noroeste 15 Oeste 0 926 0 71
2019-08-16 08:00:00 13.2 3 Norte 13 Nordeste 0 926 -0.3 77
2019-08-16 07:00:00 13.8 5 Noroeste 13 Norte 0 925.9 -0.5 75
2019-08-16 06:00:00 13 5 Norte 12 Norte 0 926 -0.8 82
2019-08-16 05:00:00 12.8 3 Noroeste 9 Noroeste 0 926.3 -0.6 82
2019-08-16 04:00:00 13.8 4 Norte 15 Norte 0 926.4 -0.7 79
2019-08-16 03:00:00 14.7 6 Norte 17 Norte 0 926.8 -0.5 77
2019-08-16 02:00:00 15.7 6 Nordeste 19 Nordeste 0 926.9 -0.5 72
2019-08-16 01:00:00 16.9 11 Nordeste 27 Nordeste 0 927.1 0.3 67
2019-08-16 00:00:00 18.2 9 Nordeste 27 Nordeste 0 927.3 0.9 63
2019-08-15 23:00:00 19 9 Nordeste 27 Nordeste 0 927.4 1.6 60
2019-08-15 22:00:00 20.2 13 Nordeste 35 Nordeste 0 926.8 1.3 57
2019-08-15 21:00:00 22.8 10 Nordeste 35 Nordeste 0 926.4 0.6 46
2019-08-15 20:00:00 25.7 10 Este 29 Sudeste 0 925.8 -0.4 37
2019-08-15 19:00:00 29 5 Sudeste 16 Sudeste 0 925.5 -1.2 29
2019-08-15 18:00:00 28.3 6 Sudeste 18 Sudeste 0 925.8 -1.2 33
2019-08-15 17:00:00 28.9 6 Oeste 16 Noroeste 0 926.2 -1.2 30
2019-08-15 16:00:00 27.9 5 Noroeste 13 Sudoeste 0 926.7 -1 31
2019-08-15 15:00:00 27.6 5 Sudoeste 17 Sudoeste 0 927 -1.2 34
2019-08-15 14:00:00 26.3 7 Sudeste 18 Sudeste 0 927.4 -0.9 37
2019-08-15 13:00:00 24.7 4 Nordeste 19 Norte 0 927.7 -0.6 43
2019-08-15 12:00:00 22.7 5 Nordeste 16 Norte 0 928.2 -0.3 48
2019-08-15 11:00:00 21.2 7 Este 19 Nordeste 0 928.3 0.3 61
2019-08-15 10:00:00 18.7 8 Nordeste 23 Nordeste 0 928.3 0.6 71
2019-08-15 09:00:00 15.7 6 Nordeste 16 Nordeste 0 928.5 1 90
2019-08-15 08:00:00 12.2 2 Norte 9 Norte 0 928 0.6 96
2019-08-15 07:00:00 12.3 2 Noroeste 8 Nordeste 0 927.7 0.6 94
2019-08-15 06:00:00 13.6 6 Norte 12 Norte 0 927.5 0 97
2019-08-15 05:00:00 13.4 4 Norte 8 Nordeste 0 927.4 0 94
2019-08-15 04:00:00 14.6 2 Nordeste 13 Nordeste 0 927.1 -0.2 85
2019-08-15 03:00:00 15.3 7 Norte 14 Norte 0 927.5 0.4 82
2019-08-15 02:00:00 16.2 4 Nordeste 15 Nordeste 0 927.4 0.8 77
2019-08-15 01:00:00 17.5 8 Nordeste 25 Este 0 927.3 1.4 72
2019-08-15 00:00:00 19.3 9 Nordeste 22 Norte 0 927.1 2.1 62
2019-08-14 23:00:00 21.6 7 Nordeste 23 Este 0 926.6 1.9 51
2019-08-14 22:00:00 24.2 6 Nordeste 20 Nordeste 0 925.9 1 44
2019-08-14 21:00:00 24.1 0 Calma 7 Este 0 925 -0.3 54
2019-08-14 20:00:00 26.5 2 Noroeste 8 Noroeste 0 924.7 -0.8 41
2019-08-14 19:00:00 29.3 3 Oeste 11 Sur 0 924.9 -1.2 33
2019-08-14 18:00:00 29.5 3 Noroeste 16 Noroeste 0 925.3 -1.2 31
2019-08-14 17:00:00 29.2 7 Norte 18 Noroeste 0 925.5 -1.5 27
2019-08-14 16:00:00 28.5 6 Sudoeste 21 Sudoeste 0 926.1 -1.1 27
2019-08-14 15:00:00 27.7 3 Noroeste 18 Sudoeste 0 926.5 -1.1 29
2019-08-14 14:00:00 26.7 7 Oeste 19 Sur 0 927 -0.7 27
2019-08-14 13:00:00 25 5 Oeste 24 Sudoeste 0 927.2 -0.6 32
2019-08-14 12:00:00 22.7 3 Noroeste 10 Sudoeste 0 927.6 -0.1 40
2019-08-14 11:00:00 20.2 3 Noroeste 10 Sudoeste 0 927.7 0.5 47
2019-08-14 10:00:00 17.1 3 Nordeste 9 Sudeste 0 927.8 0.7 59
2019-08-14 09:00:00 12.4 3 Noroeste 5 Noroeste 0 927.7 0.8 84
2019-08-14 08:00:00 8.8 2 Norte 5 Norte 0 927.2 0 96
2019-08-14 07:00:00 8.8 3 Norte 4 Norte 0 927.1 -0.3 95
2019-08-14 06:00:00 9.2 0 Calma 4 Norte 0 926.9 -0.9 93
2019-08-14 05:00:00 10.1 0 Calma 7 Norte 0 927.2 -0.6 84
2019-08-14 04:00:00 11.7 3 Norte 10 Noroeste 0 927.4 -0.3 80
2019-08-14 03:00:00 12.9 5 Norte 13 Nordeste 0 927.8 0.4 76
2019-08-14 02:00:00 14.5 6 Nordeste 18 Nordeste 0 927.8 0.7 70
2019-08-14 01:00:00 15 10 Nordeste 23 Nordeste 0 927.7 1 67
2019-08-14 00:00:00 15.7 9 Nordeste 19 Nordeste 0 927.4 1 61
2019-08-13 23:00:00 16.9 5 Nordeste 19 Nordeste 0 927.1 1 49
2019-08-13 22:00:00 15.7 0 Calma 16 Este 0 926.7 0.6 67
2019-08-13 21:00:00 18.5 0 Calma 5 Norte 0 926.4 -0.1 50
2019-08-13 20:00:00 22 3 Sur 10 Sur 0 926.1 -0.7 30
2019-08-13 19:00:00 24.8 4 Este 12 Norte 0 926.1 -1.2 25
2019-08-13 18:00:00 24.1 5 Norte 16 Nordeste 0 926.5 -1 25
2019-08-13 17:00:00 24.1 3 Oeste 13 Sudoeste 0 926.8 -1.3 26
2019-08-13 16:00:00 23.6 3 Norte 15 Este 0 927.3 -1 29
2019-08-13 15:00:00 22.2 4 Nordeste 15 Noroeste 0 927.5 -1.2 30
2019-08-13 14:00:00 21 5 Nordeste 17 Norte 0 928.1 -0.8 33
2019-08-13 13:00:00 19.7 8 Nordeste 22 Sudeste 0 928.3 -0.6 37
2019-08-13 12:00:00 18.2 8 Este 19 Nordeste 0 928.7 -0.2 43
2019-08-13 11:00:00 16.2 8 Nordeste 22 Nordeste 0 928.9 0.1 52
2019-08-13 10:00:00 14 8 Nordeste 19 Nordeste 0 928.9 0.5 63
2019-08-13 09:00:00 11.1 8 Nordeste 18 Nordeste 0 928.9 0.6 78
2019-08-13 08:00:00 9 9 Norte 17 Nordeste 0 928.8 0.5 91
2019-08-13 07:00:00 8.4 5 Nordeste 12 Nordeste 0 928.4 -0.3 91
2019-08-13 06:00:00 9.1 4 Norte 12 Nordeste 0 928.3 -0.6 82
2019-08-13 05:00:00 10.2 5 Nordeste 17 Nordeste 0 928.3 -1.1 77
2019-08-13 04:00:00 10.9 6 Nordeste 22 Nordeste 0 928.7 -1.1 73
2019-08-13 03:00:00 11 6 Nordeste 24 Nordeste 0 928.9 -0.9 75
2019-08-13 02:00:00 11.7 13 Nordeste 31 Nordeste 0 929.4 -0.2 74
2019-08-13 01:00:00 12 10 Nordeste 28 Este 0 929.8 1.2 71
2019-08-13 00:00:00 12.5 12 Nordeste 30 Nordeste 0 929.8 2 69
2019-08-12 23:00:00 12.9 10 Nordeste 27 Nordeste 0 929.6 2.1 68
2019-08-12 22:00:00 14 13 Nordeste 33 Nordeste 0 928.6 1.5 62
2019-08-12 21:00:00 15.5 14 Nordeste 39 Nordeste 0 927.8 0.9 54
2019-08-12 20:00:00 17.1 11 Este 34 Este 0 927.5 0.5 52
2019-08-12 19:00:00 19.5 11 Nordeste 34 Este 0 927.1 -0.4 41
2019-08-12 18:00:00 20.7 10 Este 32 Sudeste 0 926.9 -1 35
2019-08-12 17:00:00 21.6 6 Nordeste 18 Nordeste 0 927 -1.3 32
2019-08-12 16:00:00 20.7 8 Este 24 Nordeste 0 927.5 -1 32
2019-08-12 15:00:00 20.6 6 Este 21 Sudeste 0 927.9 -0.9 35
2019-08-12 14:00:00 19.4 10 Norte 20 Noroeste 0 928.3 -0.1 40
2019-08-12 13:00:00 18.2 5 Nordeste 18 Este 0 928.5 0.4 46
2019-08-12 12:00:00 17.6 6 Sudeste 14 Sudeste 0 928.8 1 49
2019-08-12 11:00:00 15.5 4 Este 12 Sudeste 0 928.4 1.2 57
2019-08-12 10:00:00 13.1 5 Nordeste 15 Noroeste 0 928.1 1.2 69
2019-08-12 09:00:00 9.6 2 Norte 5 Noroeste 0 927.8 1.2 95
2019-08-12 08:00:00 6.4 0 Calma 3 Oeste 0 927.2 0.4 97
2019-08-12 07:00:00 6.3 0 Calma 5 Oeste 0 926.9 0.1 96
2019-08-12 06:00:00 6.5 0 Calma 4 Noroeste 0 926.6 -0.4 95
2019-08-12 05:00:00 7.4 0 Calma 4 Norte 0 926.8 -0.3 95
2019-08-12 04:00:00 8.4 0 Calma 6 Norte 0 926.8 -0.3 94
2019-08-12 03:00:00 9.3 3 Noroeste 6 Norte 0 927 0.1 93
2019-08-12 02:00:00 10.4 0 Calma 10 Nordeste 0 927.1 0.3 84
2019-08-12 01:00:00 11.4 5 Nordeste 17 Nordeste 0 927.1 1.4 82
2019-08-12 00:00:00 12.5 6 Nordeste 20 Nordeste 0 926.9 2.5 75
2019-08-11 23:00:00 13 4 Norte 26 Norte 0 926.8 3.2 71
2019-08-11 22:00:00 13.6 11 Nordeste 35 Nordeste 0 925.7 2.5 68
2019-08-11 21:00:00 16.1 15 Nordeste 35 Nordeste 0 924.4 1.3 65
2019-08-11 20:00:00 19.8 12 Nordeste 29 Nordeste 0 923.6 0.3 53
2019-08-11 19:00:00 23.1 5 Sudoeste 18 Sudoeste 0 923.2 -0.4 31
2019-08-11 18:00:00 23.4 5 Sudoeste 23 Sudoeste 0 923.1 -0.9 31
2019-08-11 17:00:00 22.7 9 Sudoeste 28 Sudoeste 0 923.3 -1.1 35
2019-08-11 16:00:00 23.2 6 Oeste 28 Sudoeste 0 923.6 -1.1 34
2019-08-11 15:00:00 22.6 10 Sudoeste 24 Sur 0 924 -0.9 43
2019-08-11 14:00:00 19.8 6 Sudoeste 17 Sudoeste 0 924.4 -0.3 55
2019-08-11 13:00:00 20 3 Sudoeste 16 Sudoeste 0 924.7 0.5 58
2019-08-11 12:00:00 18.6 3 Norte 17 Sudoeste 0 924.9 1 63
2019-08-11 11:00:00 16.9 4 Sur 17 Sudeste 0 924.7 1.1 73
2019-08-11 10:00:00 15.2 6 Este 15 Sudeste 0 924.2 0.5 82
2019-08-11 09:00:00 14 4 Este 18 Nordeste 0 923.9 -0.2 83
2019-08-11 08:00:00 12.4 6 Nordeste 15 Norte 0 923.6 -1.2 93
2019-08-11 07:00:00 11.9 6 Nordeste 15 Norte 0.2 923.7 -1.2 91
2019-08-11 06:00:00 12 5 Nordeste 13 Nordeste 0.8 924.1 -0.4 89
2019-08-11 05:00:00 12.4 5 Norte 14 Nordeste 1.2 924.8 0.4 84
2019-08-11 04:00:00 13.4 3 Nordeste 22 Nordeste 0.4 924.9 -0.1 77
2019-08-11 03:00:00 14.7 10 Nordeste 28 Nordeste 0 924.5 -0.9 61
2019-08-11 02:00:00 14.7 13 Nordeste 31 Nordeste 0 924.4 -0.8 62
2019-08-11 01:00:00 14.5 13 Nordeste 31 Nordeste 0 925 0 64
2019-08-11 00:00:00 14.4 13 Nordeste 35 Nordeste 0 925.4 1.3 69
2019-08-10 23:00:00 14.6 15 Nordeste 39 Nordeste 0 925.2 1.3 73
2019-08-10 22:00:00 16.8 13 Nordeste 32 Nordeste 0 925 1 66
2019-08-10 21:00:00 19.7 0 Calma 6 Sudoeste 0 924.1 -0.3 49
2019-08-10 20:00:00 22.1 3 Oeste 20 Sudoeste 0 923.9 -1 31
2019-08-10 19:00:00 24.8 5 Sudoeste 30 Sudoeste 0 924 -1.5 25
2019-08-10 18:00:00 26.2 7 Sudoeste 30 Sudeste 0 924.4 -1.6 22
2019-08-10 17:00:00 26.1 7 Sur 22 Sudoeste 0 924.9 -1.6 20
2019-08-10 16:00:00 25.4 6 Sudoeste 18 Sudoeste 0 925.5 -1.3 27
2019-08-10 15:00:00 24.4 5 Sudoeste 21 Sudoeste 0 926 -1.1 29
2019-08-10 14:00:00 23.1 6 Sudoeste 19 Sudoeste 0 926.5 -0.6 29
2019-08-10 13:00:00 21.7 6 Oeste 17 Sur 0 926.8 -0.3 38
2019-08-10 12:00:00 21.4 5 Sur 18 Sudoeste 0 927.1 0.3 44
2019-08-10 11:00:00 19.2 3 Norte 10 Sur 0 927.1 0.8 48
2019-08-10 10:00:00 15.7 2 Noroeste 16 Noroeste 0 927.1 1.4 67
2019-08-10 09:00:00 15 2 Sudoeste 14 Sudoeste 0 926.8 1.4 73
2019-08-10 08:00:00 13.6 2 Sudoeste 6 Sudoeste 0 926.3 0.9 81
2019-08-10 07:00:00 13.4 2 Sur 7 Sudoeste 0 925.7 0.6 79
2019-08-10 06:00:00 13.3 0 Calma 4 Este 0 925.4 0.2 80
2019-08-10 05:00:00 13.6 0 Calma 4 Noroeste 0 925.4 0.2 78
2019-08-10 04:00:00 13.5 0 Calma 4 Norte 0 925.1 0.1 79
2019-08-10 03:00:00 13.6 3 Sudoeste 10 Sudoeste 0 925.2 0.5 76
2019-08-10 02:00:00 13.5 5 Sudoeste 10 Sudoeste 0 925.2 0.8 77
2019-08-10 01:00:00 13.9 0 Calma 12 Sudoeste 0 925 1.1 72
2019-08-10 00:00:00 15.7 5 Sudoeste 12 Sudoeste 0 924.7 1.5 63
2019-08-09 23:00:00 16.8 3 Sudoeste 13 Oeste 0 924.4 1.7 57
2019-08-09 22:00:00 19 2 Sur 24 Sudoeste 0 923.9 1.6 49
2019-08-09 21:00:00 21 5 Oeste 17 Noroeste 0 923.2 1.2 43
2019-08-09 20:00:00 22.5 5 Sudoeste 33 Sudoeste 0 922.7 1.1 40
2019-08-09 19:00:00 24.9 10 Sudoeste 32 Sudoeste 0 922.3 0.4 34
2019-08-09 18:00:00 25.9 9 Sudoeste 36 Sudoeste 0 922 0.1 31
2019-08-09 17:00:00 26.4 9 Sudoeste 38 Sudoeste 0 921.6 -0.1 28
2019-08-09 16:00:00 25 10 Sudoeste 44 Sudoeste 0 921.9 0 29
2019-08-09 15:00:00 24.2 15 Sudoeste 52 Sur 0 921.9 0.1 33
2019-08-09 14:00:00 24.9 13 Sudoeste 39 Sudoeste 0 921.7 0.5 40
2019-08-09 13:00:00 22.5 7 Sudoeste 33 Sudoeste 0 921.9 1.2 51
2019-08-09 12:00:00 19.4 8 Sudoeste 46 Sudoeste 0 921.8 2 63
2019-08-09 11:00:00 19.3 15 Sudoeste 50 Sur 0 921.2 1.6 74
2019-08-09 10:00:00 18.2 5 Sudoeste 35 Sur 0 920.7 1.5 85
2019-08-09 09:00:00 19 15 Sudoeste 34 Sudoeste 0 919.8 0.3 81
2019-08-09 08:00:00 18.6 10 Sudoeste 27 Sudoeste 0 919.6 0 79
2019-08-09 07:00:00 18.2 9 Sudoeste 28 Sur 0 919.2 -0.5 79
2019-08-09 06:00:00 17.9 8 Sudoeste 17 Sur 0 919.5 -0.5 79
2019-08-09 05:00:00 18.4 4 Sur 20 Sudoeste 0 919.6 -0.4 75
2019-08-09 04:00:00 19.4 9 Sudoeste 20 Sur 0 919.7 -0.6 71
2019-08-09 03:00:00 18.8 6 Sudoeste 12 Sudoeste 0 920 -0.1 75
2019-08-09 02:00:00 19.3 4 Sudoeste 10 Sudoeste 0 920 0.2 71
2019-08-09 01:00:00 21.4 4 Sudoeste 18 Sudoeste 0 920.3 1 63
2019-08-09 00:00:00 21 2 Sudoeste 14 Sudoeste 0 920.1 1.3 67
2019-08-08 23:00:00 22.6 3 Sudoeste 21 Sudoeste 0 919.8 1.1 62
2019-08-08 22:00:00 24.5 9 Sudoeste 29 Sudoeste 0 919.3 0.5 52
2019-08-08 21:00:00 25.9 15 Sudoeste 33 Sur 0 918.8 -0.2 44
2019-08-08 20:00:00 27.3 12 Sudoeste 36 Sudoeste 0 918.7 -0.5 40
2019-08-08 19:00:00 27.6 7 Sudoeste 37 Sudoeste 0 918.8 -1.2 45
2019-08-08 18:00:00 28.5 14 Sudoeste 36 Sudoeste 0 919 -1.6 42
2019-08-08 17:00:00 28.5 12 Sudoeste 36 Sur 0 919.2 -2.2 47
2019-08-08 16:00:00 27.7 9 Sudoeste 31 Oeste 0 920 -2 49
2019-08-08 15:00:00 26.3 6 Sudoeste 31 Sudoeste 0 920.6 -1.3 57
2019-08-08 14:00:00 24.2 5 Sudoeste 27 Sudoeste 0 921.4 -0.5 68
2019-08-08 13:00:00 20.7 10 Sudoeste 24 Sudoeste 0 922 0.4 78
2019-08-08 12:00:00 20.6 12 Sudoeste 26 Sudoeste 0 921.9 0.7 78
2019-08-08 11:00:00 20 9 Sudoeste 31 Sudoeste 0 921.9 0.7 75
2019-08-08 10:00:00 20.1 15 Sudoeste 36 Sudoeste 0 921.6 0.5 76
2019-08-08 09:00:00 18.7 12 Sudoeste 26 Sudoeste 0 921.2 0.1 81
2019-08-08 08:00:00 17.3 6 Sudoeste 14 Sudoeste 0 921.2 -0.4 94
2019-08-08 07:00:00 17.5 3 Sudoeste 9 Sudoeste 0.2 921.1 -0.4 94
2019-08-08 06:00:00 17.4 5 Sudoeste 11 Sudoeste 0 921.1 -0.7 95
2019-08-08 05:00:00 17.3 3 Sudoeste 11 Sur 0 921.6 -0.1 95
2019-08-08 04:00:00 17.2 4 Sudoeste 19 Sudoeste 0 921.5 -0.1 94
2019-08-08 03:00:00 17.2 5 Sudoeste 10 Sudoeste 0 921.8 0.2 97
2019-08-08 02:00:00 16.8 3 Sudoeste 6 Sur 0 921.7 -0.1 97
2019-08-08 01:00:00 16.4 0 Calma 5 Sudeste 0 921.6 0.1 96
2019-08-08 00:00:00 16.5 0 Calma 4 Norte 0 921.6 0.5 95
2019-08-07 23:00:00 17.2 0 Calma 8 Oeste 0 921.8 1 93
2019-08-07 22:00:00 17.9 0 Calma 18 Sudoeste 0.2 921.5 0.6 92
2019-08-07 21:00:00 18.9 4 Sudoeste 36 Sudoeste 0.4 921.1 -0.1 79
2019-08-07 20:00:00 21.1 6 Sudoeste 20 Sudoeste 0 920.8 -0.2 57
2019-08-07 19:00:00 21.4 4 Sudoeste 18 Sudoeste 0 920.9 -0.1 58
2019-08-07 18:00:00 22 5 Sudoeste 30 Oeste 0 921.2 0.5 54
2019-08-07 17:00:00 23.5 10 Sudoeste 42 Sudoeste 0 921 0.3 47
2019-08-07 16:00:00 24 3 Oeste 37 Sur 0 921 0 45
2019-08-07 15:00:00 26 10 Sudoeste 28 Sur 0 920.7 -0.4 38
2019-08-07 14:00:00 25.8 13 Sudoeste 35 Sudoeste 0 920.7 -0.4 41
2019-08-07 13:00:00 24.5 3 Sudeste 13 Sur 0 921 0.1 48
2019-08-07 12:00:00 23.5 3 Sudoeste 13 Este 0 921.1 0.6 62
2019-08-07 11:00:00 21.6 4 Sudeste 9 Sudeste 0 921.1 1.1 66
2019-08-07 10:00:00 18.8 3 Nordeste 10 Nordeste 0 920.9 1.1 78
2019-08-07 09:00:00 17.4 3 Nordeste 11 Nordeste 0 920.5 0.9 89
2019-08-07 08:00:00 16.2 0 Calma 5 Norte 0 920 0.3 97
2019-08-07 07:00:00 16.1 3 Norte 5 Noroeste 0 919.8 0.4 97
2019-08-07 06:00:00 16.1 0 Calma 3 Oeste 0 919.6 -0.2 97
2019-08-07 05:00:00 16.1 2 Sudoeste 5 Noroeste 0 919.7 -0.5 95
2019-08-07 04:00:00 16.7 3 Norte 8 Norte 0 919.4 -0.7 94
2019-08-07 03:00:00 16.9 3 Noroeste 11 Noroeste 0 919.8 -1 95
2019-08-07 02:00:00 17.2 3 Sur 15 Nordeste 0 920.2 -0.6 94
2019-08-07 01:00:00 17.4 5 Norte 27 Este 0.2 920.1 0 92
2019-08-07 00:00:00 17.7 7 Nordeste 18 Nordeste 1.2 920.8 2.1 90
2019-08-06 23:00:00 18.6 4 Este 24 Nordeste 1.8 920.8 2.4 81
2019-08-06 22:00:00 20.8 10 Nordeste 27 Nordeste 0 920.1 1.5 65
2019-08-06 21:00:00 22.8 4 Noroeste 8 Noroeste 0 918.7 -0.4 54
2019-08-06 20:00:00 24.3 0 Calma 10 Oeste 0 918.4 -1.1 51
2019-08-06 19:00:00 26.4 2 Norte 12 Sur 0 918.6 -1.3 42
2019-08-06 18:00:00 27.8 4 Sudoeste 18 Sudoeste 0 919.1 -1.3 33
2019-08-06 17:00:00 28.5 4 Sudoeste 20 Oeste 0 919.5 -1.5 28
2019-08-06 16:00:00 29 4 Sudoeste 19 Sudoeste 0 919.9 -1.6 29
2019-08-06 15:00:00 27.9 6 Sudoeste 21 Sur 0 920.4 -1.5 33
2019-08-06 14:00:00 28.2 6 Sudoeste 17 Sudoeste 0 921 -0.9 31
2019-08-06 13:00:00 26.1 5 Sudoeste 14 Sudoeste 0 921.5 -0.2 40
2019-08-06 12:00:00 23.8 3 Oeste 9 Sur 0 921.9 0.1 48
2019-08-06 11:00:00 22.7 4 Sur 9 Sudoeste 0 921.9 0.2 45
2019-08-06 10:00:00 19.6 3 Nordeste 8 Nordeste 0 921.7 0.1 53
2019-08-06 09:00:00 16.8 2 Noroeste 4 Norte 0 921.8 0.3 68
2019-08-06 08:00:00 12.5 0 Calma 5 Noroeste 0 921.7 -0.1 90
2019-08-06 07:00:00 12.4 2 Sudoeste 5 Norte 0 921.6 -0.3 83
2019-08-06 06:00:00 14 3 Norte 8 Norte 0 921.5 -0.5 74
2019-08-06 05:00:00 13.8 0 Calma 16 Nordeste 0 921.8 -0.5 77
2019-08-06 04:00:00 14.2 2 Norte 9 Norte 0 921.9 -0.3 78
2019-08-06 03:00:00 15.4 2 Norte 11 Norte 0 922 0.1 71
2019-08-06 02:00:00 16.7 4 Nordeste 13 Nordeste 0 922.3 0.7 66
2019-08-06 01:00:00 18.1 4 Nordeste 21 Nordeste 0 922.2 1 54
2019-08-06 00:00:00 19.6 10 Nordeste 30 Nordeste 0 921.9 1.5 53
2019-08-05 23:00:00 21 14 Nordeste 29 Nordeste 0 921.6 1.4 57
2019-08-05 22:00:00 23.4 10 Nordeste 24 Nordeste 0 921.2 0.9 51
2019-08-05 21:00:00 24.5 0 Calma 9 Noroeste 0 920.4 -0.2 47
2019-08-05 20:00:00 28.2 2 Noroeste 11 Sudoeste 0 920.2 -0.7 30
2019-08-05 19:00:00 30.9 4 Sudoeste 18 Oeste 0 920.3 -1.1 24
2019-08-05 18:00:00 31.3 3 Oeste 19 Sudoeste 0 920.6 -1.2 25
2019-08-05 17:00:00 31.1 6 Sudoeste 19 Sudoeste 0 920.9 -1.4 25
2019-08-05 16:00:00 30.3 5 Sudoeste 17 Sudeste 0 921.4 -1.4 25
2019-08-05 15:00:00 29.3 5 Oeste 16 Sudoeste 0 921.8 -1.4 28
2019-08-05 14:00:00 27.9 5 Norte 16 Noroeste 0 922.3 -1.2 37
2019-08-05 13:00:00 26.6 5 Oeste 12 Oeste 0 922.8 -0.9 40
2019-08-05 12:00:00 24.9 2 Noroeste 12 Sudeste 0 923.2 -0.6 49
2019-08-05 11:00:00 22.4 5 Nordeste 13 Nordeste 0 923.5 -0.3 53
2019-08-05 10:00:00 19.3 6 Nordeste 14 Nordeste 0 923.7 0.1 64
2019-08-05 09:00:00 16.8 5 Norte 11 Norte 0 923.8 0.3 77
2019-08-05 08:00:00 12.5 0 Calma 4 Nordeste 0 923.8 0.3 91
2019-08-05 07:00:00 13.2 2 Norte 7 Noroeste 0 923.6 -0.1 89
2019-08-05 06:00:00 14.3 5 Norte 12 Norte 0 923.5 -0.3 85
2019-08-05 05:00:00 14.6 5 Norte 10 Norte 0 923.5 -0.5 84
2019-08-05 04:00:00 15.2 5 Norte 16 Nordeste 0 923.7 -0.3 81
2019-08-05 03:00:00 15.8 8 Nordeste 16 Nordeste 0 923.8 0.1 80
2019-08-05 02:00:00 15.9 3 Nordeste 11 Nordeste 0 924 0.5 80
2019-08-05 01:00:00 16.7 6 Nordeste 27 Nordeste 0 924 1.6 78
2019-08-05 00:00:00 17.5 11 Nordeste 28 Nordeste 0 923.7 2.6 75
2019-08-04 23:00:00 18.8 12 Nordeste 30 Nordeste 0 923.5 2.7 70
2019-08-04 22:00:00 22.2 12 Nordeste 32 Nordeste 0 922.4 1.7 57
2019-08-04 21:00:00 26.6 3 Sudoeste 19 Oeste 0 921.1 0.1 32
2019-08-04 20:00:00 29.3 4 Sudoeste 22 Sudoeste 0 920.8 -0.4 28
2019-08-04 19:00:00 30 6 Sudoeste 22 Sur 0 920.7 -0.8 25
2019-08-04 18:00:00 31.4 6 Sudoeste 21 Sudoeste 0 921 -0.9 23
2019-08-04 17:00:00 31.5 8 Sudoeste 27 Sudoeste 0 921.2 -1.2 24
2019-08-04 16:00:00 31.5 11 Sudoeste 24 Sudoeste 0 921.5 -1.4 28
2019-08-04 15:00:00 30 4 Sudoeste 17 Este 0 921.9 -1.1 35
2019-08-04 14:00:00 28.4 5 Sur 12 Sudeste 0 922.4 -0.7 37
2019-08-04 13:00:00 26.8 4 Sudeste 12 Sudeste 0 922.9 -0.4 44
2019-08-04 12:00:00 24.4 6 Este 17 Sudeste 0 923 -0.1 50
2019-08-04 11:00:00 22.2 6 Nordeste 19 Nordeste 0 923.1 0.5 56
2019-08-04 10:00:00 19.6 7 Nordeste 20 Nordeste 0 923.3 0.9 58
2019-08-04 09:00:00 17.3 5 Nordeste 12 Nordeste 0 923.1 1.1 66
2019-08-04 08:00:00 12.6 0 Calma 4 Noroeste 0 922.6 0.3 83
2019-08-04 07:00:00 13.2 0 Calma 6 Norte 0 922.4 0.1 78
2019-08-04 06:00:00 14.3 2 Norte 9 Nordeste 0 922 -0.3 73
2019-08-04 05:00:00 15 3 Norte 7 Nordeste 0 922.3 0 77
2019-08-04 04:00:00 16.7 5 Norte 14 Norte 0 922.3 0.2 71
2019-08-04 03:00:00 17.5 7 Norte 16 Norte 0 922.3 0.8 67
2019-08-04 02:00:00 18.6 5 Norte 13 Nordeste 0 922.3 0.9 62
2019-08-04 01:00:00 19.7 7 Nordeste 27 Nordeste 0 922.1 1.3 58
2019-08-04 00:00:00 20.7 14 Nordeste 31 Nordeste 0 921.5 1.5 57
2019-08-03 23:00:00 22.1 14 Nordeste 33 Nordeste 0 921.4 1.7 55
2019-08-03 22:00:00 24.2 14 Nordeste 33 Nordeste 0 920.8 1 51
2019-08-03 21:00:00 25.9 2 Norte 14 Este 0 920 -0.2 48
2019-08-03 20:00:00 29.8 2 Sudoeste 13 Oeste 0 919.7 -0.8 24
2019-08-03 19:00:00 32.3 5 Sudoeste 17 Sur 0 919.8 -1.1 16
2019-08-03 18:00:00 31.4 6 Sudoeste 18 Sudoeste 0 920.2 -1.1 19
2019-08-03 17:00:00 32.8 5 Sudoeste 17 Sur 0 920.5 -1.3 18
2019-08-03 16:00:00 33.2 6 Sur 19 Sudoeste 0 920.9 -1.3 19
2019-08-03 15:00:00 32.5 6 Sudeste 14 Sudoeste 0 921.3 -1 21
2019-08-03 14:00:00 31.6 4 Sur 15 Sudeste 0 921.8 -0.7 22
2019-08-03 13:00:00 30.4 3 Sudeste 13 Nordeste 0 922.2 -0.6 27
2019-08-03 12:00:00 28.4 5 Este 16 Este 0 922.3 -0.5 30
2019-08-03 11:00:00 26.7 5 Sudeste 15 Sudeste 0 922.5 -0.1 30
2019-08-03 10:00:00 23.4 4 Este 18 Nordeste 0 922.8 0.3 37
2019-08-03 09:00:00 19.6 6 Nordeste 12 Nordeste 0 922.8 0.4 43
2019-08-03 08:00:00 14.4 3 Nordeste 9 Nordeste 0 922.6 -0.2 67
2019-08-03 07:00:00 15 3 Norte 15 Nordeste 0 922.5 -0.4 65
2019-08-03 06:00:00 16.5 7 Nordeste 18 Nordeste 0 922.4 -0.8 60
2019-08-03 05:00:00 15.7 3 Nordeste 18 Norte 0 922.8 -0.8 67
2019-08-03 04:00:00 16.5 8 Nordeste 17 Nordeste 0 922.9 -0.8 67
2019-08-03 03:00:00 17.3 7 Nordeste 19 Nordeste 0 923.2 -0.3 70
2019-08-03 02:00:00 17.8 10 Nordeste 20 Nordeste 0 923.6 0.2 72
2019-08-03 01:00:00 19 7 Nordeste 19 Nordeste 0 923.7 0.8 66
2019-08-03 00:00:00 20.5 8 Nordeste 20 Nordeste 0 923.5 1 59
2019-08-02 23:00:00 22.1 9 Nordeste 26 Nordeste 0 923.4 1.3 46
2019-08-02 22:00:00 24 9 Nordeste 31 Nordeste 0 922.9 0.6 41
2019-08-02 21:00:00 25 9 Norte 25 Nordeste 0 922.5 -0.1 40
2019-08-02 20:00:00 27.5 0 Calma 5 Noroeste 0 922.1 -0.9 28
2019-08-02 19:00:00 30.1 3 Sudoeste 9 Sur 0 922.3 -1.1 25
2019-08-02 18:00:00 30.9 4 Sudeste 13 Sudeste 0 922.6 -1.1 18
2019-08-02 17:00:00 30.7 4 Este 18 Sur 0 923 -1 20
2019-08-02 16:00:00 30.8 3 Sur 14 Sudeste 0 923.4 -0.9 19
2019-08-02 15:00:00 29.3 5 Sudoeste 16 Sur 0 923.7 -0.9 23
2019-08-02 14:00:00 28.4 5 Sudeste 16 Este 0 924 -0.8 30
2019-08-02 13:00:00 25.8 4 Nordeste 15 Este 0 924.3 -0.4 35
2019-08-02 12:00:00 23.2 5 Este 19 Nordeste 0 924.6 0.1 45
2019-08-02 11:00:00 20.4 6 Nordeste 19 Nordeste 0 924.8 0.5 57
2019-08-02 10:00:00 17.4 7 Nordeste 19 Nordeste 0 924.7 0.6 69
2019-08-02 09:00:00 14.5 9 Nordeste 19 Nordeste 0 924.5 0.5 81
2019-08-02 08:00:00 11.6 5 Norte 10 Nordeste 0 924.3 0.3 95
2019-08-02 07:00:00 11.5 5 Norte 15 Nordeste 0 924.1 -0.1 94
2019-08-02 06:00:00 11.9 4 Norte 15 Nordeste 0 924 -0.3 92
2019-08-02 05:00:00 12.2 4 Nordeste 16 Nordeste 0 924 -0.5 91
2019-08-02 04:00:00 12.7 5 Nordeste 14 Nordeste 0 924.2 -0.2 89
2019-08-02 03:00:00 13.4 6 Nordeste 14 Nordeste 0 924.3 0.3 84
2019-08-02 02:00:00 14.1 6 Nordeste 23 Nordeste 0 924.5 1 81
2019-08-02 01:00:00 14.8 8 Nordeste 21 Nordeste 0 924.4 1.6 79
2019-08-02 00:00:00 15.4 8 Nordeste 28 Nordeste 0 924 1.9 76
2019-08-01 23:00:00 16.3 9 Este 34 Nordeste 0 923.5 2.3 74
2019-08-01 22:00:00 17.8 11 Este 32 Este 0 922.8 2.2 69
2019-08-01 21:00:00 20.9 11 Este 35 Este 0 922.1 1.7 59
2019-08-01 20:00:00 24.3 9 Este 36 Nordeste 0 921.2 0.7 49
2019-08-01 19:00:00 25.9 12 Nordeste 29 Nordeste 0 920.6 -0.2 45
2019-08-01 18:00:00 27.7 3 Este 14 Sur 0 920.4 -0.6 34
2019-08-01 17:00:00 28.3 5 Nordeste 14 Sudeste 0 920.5 -0.7 31
2019-08-01 16:00:00 28.5 4 Este 17 Nordeste 0 920.8 -0.5 32
2019-08-01 15:00:00 27.1 6 Este 21 Nordeste 0 921 -0.4 38
2019-08-01 14:00:00 25.5 7 Este 22 Nordeste 0 921.2 0 48
2019-08-01 13:00:00 23.8 8 Este 19 Norte 0 921.3 0.4 52
2019-08-01 12:00:00 22.6 6 Este 23 Este 0 921.4 0.6 57
2019-08-01 11:00:00 20.7 10 Este 33 Nordeste 0 921.2 0.6 63
2019-08-01 10:00:00 18.4 11 Nordeste 30 Nordeste 0 920.9 0.3 68
2019-08-01 09:00:00 15.8 11 Nordeste 27 Nordeste 0 920.8 0.2 76
2019-08-01 08:00:00 13.6 9 Nordeste 23 Nordeste 0 920.6 -0.3 84
2019-08-01 07:00:00 13.3 8 Nordeste 23 Nordeste 0 920.6 -0.2 83
2019-08-01 06:00:00 13.3 8 Norte 22 Nordeste 0 920.6 -0.9 81
2019-08-01 05:00:00 13.7 10 Nordeste 25 Nordeste 0 920.9 -0.8 79
2019-08-01 04:00:00 14.4 8 Nordeste 26 Nordeste 0 920.8 -1.3 76
2019-08-01 03:00:00 14.6 7 Nordeste 25 Nordeste 0 921.5 -0.8 75
2019-08-01 02:00:00 15.1 9 Nordeste 30 Nordeste 0 921.7 -0.7 74
2019-08-01 01:00:00 15.8 10 Nordeste 28 Nordeste 0 922.1 0 71
2019-08-01 00:00:00 16.4 12 Nordeste 31 Nordeste 0 922.3 0.8 70
2019-07-31 23:00:00 17.5 12 Nordeste 27 Nordeste 0 922.4 1.1 66
2019-07-31 22:00:00 19.4 10 Nordeste 28 Nordeste 0 922.1 0.6 58
2019-07-31 21:00:00 20.9 14 Nordeste 33 Nordeste 0 921.5 -0.4 50
2019-07-31 20:00:00 23 14 Nordeste 31 Nordeste 0 921.3 -1 41
2019-07-31 19:00:00 24.8 10 Nordeste 29 Nordeste 0 921.5 -1.2 34
2019-07-31 18:00:00 25.4 8 Este 28 Este 0 921.9 -1.1 31
2019-07-31 17:00:00 25.8 9 Este 27 Nordeste 0 922.3 -1.4 30
2019-07-31 16:00:00 24.8 13 Nordeste 28 Nordeste 0 922.7 -1.4 33
2019-07-31 15:00:00 23.5 11 Nordeste 29 Nordeste 0 923 -1.6 34
2019-07-31 14:00:00 22.7 9 Nordeste 23 Nordeste 0 923.7 -1.3 36
2019-07-31 13:00:00 22 7 Nordeste 24 Nordeste 0 924.1 -1.3 36
2019-07-31 12:00:00 19.5 10 Nordeste 28 Nordeste 0 924.6 -0.8 45
2019-07-31 11:00:00 17.5 10 Nordeste 31 Nordeste 0 925 -0.5 51
2019-07-31 10:00:00 15 12 Nordeste 34 Nordeste 0 925.4 -0.2 63
2019-07-31 09:00:00 12.7 11 Nordeste 25 Nordeste 0 925.4 -0.4 74
2019-07-31 08:00:00 10.4 9 Norte 21 Norte 0 925.5 -0.4 90
2019-07-31 07:00:00 9.7 6 Nordeste 17 Nordeste 0 925.6 -0.4 92
2019-07-31 06:00:00 9.9 5 Nordeste 17 Nordeste 0 925.8 -0.8 86
2019-07-31 05:00:00 10.8 10 Nordeste 21 Nordeste 0 925.9 -0.5 83
2019-07-31 04:00:00 10.7 8 Nordeste 21 Nordeste 0 926 -0.3 84
2019-07-31 03:00:00 11.1 6 Este 31 Nordeste 0 926.6 0.3 82
2019-07-31 02:00:00 11.4 8 Nordeste 25 Nordeste 0 926.4 0.3 81
2019-07-31 01:00:00 11.9 10 Nordeste 28 Nordeste 0 926.3 0.9 78
2019-07-31 00:00:00 12.4 12 Nordeste 33 Nordeste 0 926.3 1.4 76
2019-07-30 23:00:00 13.5 14 Nordeste 31 Nordeste 0 926.1 1.5 70
2019-07-30 22:00:00 15.6 14 Nordeste 30 Este 0 925.4 1.1 60
2019-07-30 21:00:00 18.5 11 Nordeste 33 Nordeste 0 924.9 0.4 47
2019-07-30 20:00:00 20.6 12 Nordeste 42 Nordeste 0 924.6 -0.3 41
2019-07-30 19:00:00 23.5 6 Nordeste 22 Sudeste 0 924.3 -0.9 28
2019-07-30 18:00:00 23.2 5 Nordeste 20 Nordeste 0 924.5 -1.1 29
2019-07-30 17:00:00 23.9 4 Sur 17 Norte 0 924.9 -1.1 29
2019-07-30 16:00:00 23.1 6 Sur 16 Sudeste 0 925.2 -1 32
2019-07-30 15:00:00 22 6 Este 20 Norte 0 925.6 -0.7 32
2019-07-30 14:00:00 21.4 5 Sur 18 Nordeste 0 926 -0.2 36
2019-07-30 13:00:00 20.7 6 Este 20 Nordeste 0 926.2 -0.1 40
2019-07-30 12:00:00 18.9 4 Este 17 Sudeste 0 926.3 0.4 51
2019-07-30 11:00:00 17.1 8 Este 22 Sudeste 0 926.2 1 58
2019-07-30 10:00:00 15.3 6 Este 16 Este 0 926.3 1.9 68
2019-07-30 09:00:00 12.9 3 Este 11 Sudeste 0 925.9 1.3 95
2019-07-30 08:00:00 10.7 3 Noroeste 4 Norte 0 925.2 0.7 96
2019-07-30 07:00:00 10.7 0 Calma 4 Noroeste 0 924.4 0.3 93
2019-07-30 06:00:00 11.2 0 Calma 4 Norte 0 924.6 0.6 95
2019-07-30 05:00:00 10.9 0 Calma 5 Noroeste 0 924.5 0.6 95
2019-07-30 04:00:00 10.3 2 Noroeste 4 Oeste 0 924.1 0.5 94
2019-07-30 03:00:00 10.7 0 Calma 8 Oeste 0 924 0.7 91
2019-07-30 02:00:00 12.3 0 Calma 12 Sudeste 0 923.9 1.3 84
2019-07-30 01:00:00 13.1 4 Este 14 Este 0 923.6 2.3 82
2019-07-30 00:00:00 14 5 Sudeste 17 Este 0 923.3 2.9 76
2019-07-29 23:00:00 14.6 2 Nordeste 9 Oeste 0 922.6 2.8 55
2019-07-29 22:00:00 17.4 2 Sudeste 12 Sudeste 0 921.3 1.8 45
2019-07-29 21:00:00 20.1 2 Sudeste 15 Oeste 0 920.4 1.4 40
2019-07-29 20:00:00 22.8 4 Sur 18 Sudoeste 0 919.8 0.8 32
2019-07-29 19:00:00 25 4 Este 23 Oeste 0 919.5 0.4 31
2019-07-29 18:00:00 25.6 6 Noroeste 25 Sudoeste 0 919 -0.2 32
2019-07-29 17:00:00 26.3 8 Sudoeste 27 Sur 0 919 -0.2 30
2019-07-29 16:00:00 25.7 6 Sudoeste 25 Oeste 0 919.1 -0.3 32
2019-07-29 15:00:00 25.8 10 Sudoeste 40 Sudoeste 0 919.2 -0.4 36
2019-07-29 14:00:00 24.9 9 Sudoeste 36 Sudoeste 0 919.2 -0.3 37
2019-07-29 13:00:00 23.7 14 Sudoeste 30 Sudoeste 0 919.4 0 44
2019-07-29 12:00:00 22.7 10 Sudoeste 24 Sur 0 919.6 0.4 39
2019-07-29 11:00:00 20.8 5 Sudoeste 20 Sur 0 919.5 0.7 48
2019-07-29 10:00:00 18.1 9 Sudoeste 18 Sudoeste 0 919.4 1 55
2019-07-29 09:00:00 13.9 3 Sudoeste 8 Sudoeste 0 919.2 1 77
2019-07-29 08:00:00 8.9 0 Calma 4 Noroeste 0 918.8 0.7 95
2019-07-29 07:00:00 8.2 0 Calma 6 Noroeste 0 918.4 0.4 93
2019-07-29 06:00:00 9.1 2 Noroeste 5 Noroeste 0 918.2 0.2 93
2019-07-29 05:00:00 9.4 0 Calma 4 Noroeste 0 918.1 -0.1 92
2019-07-29 04:00:00 10 0 Calma 5 Norte 0 918 -0.2 90
2019-07-29 03:00:00 10.5 2 Norte 14 Nordeste 0 918 -0.2 85
2019-07-29 02:00:00 11 0 Calma 3 Noroeste 0 918.2 -0.1 83
2019-07-29 01:00:00 12.2 2 Norte 5 Noroeste 0 918.2 0.1 81
2019-07-29 00:00:00 13 2 Norte 3 Norte 0 918.2 0.2 77
2019-07-28 23:00:00 14.8 2 Norte 3 Norte 0 918.3 0.3 69
2019-07-28 22:00:00 17.3 0 Calma 2 Norte 0 918.1 0.1 66
2019-07-28 21:00:00 19.8 3 Noroeste 9 Norte 0 918 -0.2 53
2019-07-28 20:00:00 23.2 0 Calma 13 Oeste 0 918 -0.9 31
2019-07-28 19:00:00 24.9 4 Sudoeste 19 Sudoeste 0 918 -1.4 25
2019-07-28 18:00:00 25 7 Sudoeste 22 Sudoeste 0 918.2 -1.5 30
2019-07-28 17:00:00 24.4 5 Oeste 22 Sudoeste 0 918.9 -1.5 30
2019-07-28 16:00:00 23.3 3 Noroeste 19 Sudoeste 0 919.4 -1.5 33
2019-07-28 15:00:00 22.3 5 Oeste 18 Sudoeste 0 919.7 -1.5 37
2019-07-28 14:00:00 20.9 5 Sur 17 Sudoeste 0 920.4 -1.2 43
2019-07-28 13:00:00 19 4 Sudoeste 14 Sur 0 920.9 -0.8 51
2019-07-28 12:00:00 18.2 3 Noroeste 13 Noroeste 0 921.2 -0.3 55
2019-07-28 11:00:00 16.5 4 Sur 10 Sudeste 0 921.6 0.2 62
2019-07-28 10:00:00 14.5 3 Nordeste 9 Nordeste 0 921.7 0.6 71
2019-07-28 09:00:00 12.1 3 Norte 6 Noroeste 0 921.5 0.6 93
2019-07-28 08:00:00 7.9 0 Calma 4 Noroeste 0 921.4 0.4 97
2019-07-28 07:00:00 7.1 0 Calma 13 Nordeste 0 921.1 0 96
2019-07-28 06:00:00 8 0 Calma 5 Norte 0 920.9 -0.4 96
2019-07-28 05:00:00 8.4 0 Calma 5 Noroeste 0 921 -0.2 95
2019-07-28 04:00:00 9.1 0 Calma 5 Noroeste 0 921.1 0.2 95
2019-07-28 03:00:00 10 4 Oeste 7 Sudoeste 0 921.3 0.2 93
2019-07-28 02:00:00 11.1 4 Sudeste 9 Sudeste 0 921.2 0.5 90
2019-07-28 01:00:00 12.3 3 Nordeste 13 Nordeste 0 920.9 1 84
2019-07-28 00:00:00 12.5 3 Nordeste 10 Nordeste 0 921.1 2 84
2019-07-27 23:00:00 13.1 2 Este 14 Este 0 920.7 2.1 82
2019-07-26 12:00:00 -- -- -- -- -- -- -- -- --
2019-07-26 11:00:00 -- -- -- -- -- -- -- -- --
2019-07-26 10:00:00 -- -- -- -- -- -- -- -- --
2019-07-26 09:00:00 -- -- -- -- -- -- -- -- --
2019-07-26 08:00:00 -- -- -- -- -- -- -- -- --
2019-07-26 07:00:00 -- -- -- -- -- -- -- -- --
2019-07-26 06:00:00 18.5 4 Este -- -- -- 921.1 -- 78
2019-07-26 05:00:00 -- -- -- -- -- -- -- -- --
2019-07-26 04:00:00 -- -- -- -- -- -- -- -- --
2019-07-26 03:00:00 -- -- -- -- -- -- -- -- --
2019-07-26 02:00:00 -- -- -- -- -- -- -- -- --
2019-07-26 01:00:00 -- -- -- -- -- -- -- -- --
2019-07-26 00:00:00 -- -- -- -- -- -- -- -- --